createdAt,value
2022-12-18T00:01:29.283Z,34.77
2022-12-18T00:03:56.760Z,39.92
2022-12-18T00:06:24.156Z,33.30
2022-12-18T00:08:50.859Z,37.22
2022-12-18T00:11:22.440Z,37.95
2022-12-18T00:13:50.526Z,40.40
2022-12-18T00:16:22.066Z,40.35
2022-12-18T00:18:50.384Z,53.40
2022-12-18T00:21:16.937Z,45.47
2022-12-18T00:23:44.819Z,31.80
2022-12-18T00:26:16.610Z,40.97
2022-12-18T00:28:43.946Z,47.60
2022-12-18T00:31:13.132Z,44.83
2022-12-18T00:33:40.102Z,45.83
2022-12-18T00:36:09.947Z,37.13
2022-12-18T00:38:36.789Z,41.57
2022-12-18T00:41:03.785Z,50.38
2022-12-18T00:43:30.263Z,34.35
2022-12-18T00:45:56.860Z,41.08
2022-12-18T00:48:23.629Z,44.80
2022-12-18T00:50:51.017Z,43.03
2022-12-18T00:53:17.634Z,39.95
2022-12-18T00:55:44.831Z,47.25
2022-12-18T00:58:12.051Z,41.78
2022-12-18T01:00:39.067Z,38.45
2022-12-18T01:03:06.522Z,39.57
2022-12-18T01:05:33.338Z,35.67
2022-12-18T01:08:00.724Z,37.90
2022-12-18T01:10:27.550Z,41.70
2022-12-18T01:12:53.950Z,38.08
2022-12-18T01:15:20.404Z,36.73
2022-12-18T01:17:46.835Z,46.80
2022-12-18T01:20:14.084Z,41.25
2022-12-18T01:22:40.766Z,41.70
2022-12-18T01:25:07.539Z,39.72
2022-12-18T01:27:34.977Z,36.37
2022-12-18T01:30:01.337Z,45.35
2022-12-18T01:32:31.443Z,35.47
2022-12-18T01:34:57.955Z,35.20
2022-12-18T01:37:24.378Z,39.67
2022-12-18T01:39:50.946Z,37.30
2022-12-18T01:42:17.675Z,42.33
2022-12-18T01:45:14.618Z,40.25
2022-12-18T01:47:53.049Z,43.38
2022-12-18T01:50:33.574Z,36.33
2022-12-18T01:53:15.785Z,41.90
2022-12-18T01:55:47.470Z,46.75
2022-12-18T01:58:14.357Z,42.65
2022-12-18T02:00:41.162Z,42.15
2022-12-18T02:03:07.691Z,37.70
2022-12-18T02:05:42.284Z,45.00
2022-12-18T02:08:42.096Z,40.95
2022-12-18T02:11:19.890Z,36.13
2022-12-18T02:14:09.494Z,37.15
2022-12-18T02:16:36.370Z,45.40
2022-12-18T02:19:15.358Z,40.00
2022-12-18T02:21:53.638Z,37.05
2022-12-18T02:24:46.236Z,41.28
2022-12-18T02:27:14.203Z,41.67
2022-12-18T02:30:01.859Z,36.13
2022-12-18T02:32:32.250Z,38.50
2022-12-18T02:35:00.941Z,34.08
2022-12-18T02:37:28.918Z,38.40
2022-12-18T02:39:58.631Z,38.03
2022-12-18T02:42:25.502Z,40.92
2022-12-18T02:44:52.723Z,26.93
2022-12-18T02:47:22.918Z,31.05
2022-12-18T02:50:31.684Z,31.15
2022-12-18T02:53:13.026Z,32.47
2022-12-18T02:55:51.661Z,41.83
2022-12-18T02:58:55.420Z,33.77
2022-12-18T03:01:59.788Z,29.30
2022-12-18T03:04:48.497Z,38.40
2022-12-18T03:07:24.724Z,29.40
2022-12-18T03:09:54.056Z,33.53
2022-12-18T03:12:33.316Z,29.80
2022-12-18T03:15:17.662Z,31.52
2022-12-18T03:17:49.715Z,29.88
2022-12-18T03:20:20.620Z,32.72
2022-12-18T03:22:52.866Z,31.05
2022-12-18T03:25:20.714Z,31.97
2022-12-18T03:27:56.281Z,32.65
2022-12-18T03:30:22.878Z,29.73
2022-12-18T03:32:59.988Z,29.23
2022-12-18T03:35:32.600Z,24.05
2022-12-18T03:37:59.275Z,27.17
2022-12-18T03:40:35.731Z,25.55
2022-12-18T03:43:15.059Z,32.45
2022-12-18T03:45:53.234Z,24.48
2022-12-18T03:48:28.751Z,27.60
2022-12-18T03:51:00.797Z,33.43
2022-12-18T03:53:46.595Z,31.27
2022-12-18T03:56:15.878Z,26.92
2022-12-18T03:58:44.754Z,28.52
2022-12-18T04:01:16.048Z,27.20
2022-12-18T04:03:44.982Z,30.47
2022-12-18T04:06:12.798Z,22.05
2022-12-18T04:08:40.904Z,24.42
2022-12-18T04:11:07.357Z,31.40
2022-12-18T04:13:37.530Z,22.85
2022-12-18T04:16:04.600Z,23.70
2022-12-18T04:18:31.839Z,32.88
2022-12-18T04:20:58.291Z,23.25
2022-12-18T04:23:24.871Z,24.70
2022-12-18T04:25:51.283Z,25.80
2022-12-18T04:28:18.038Z,30.87
2022-12-18T04:30:44.687Z,29.88
2022-12-18T04:33:12.724Z,21.30
2022-12-18T04:35:40.195Z,23.92
2022-12-18T04:38:07.845Z,24.15
2022-12-18T04:40:37.153Z,21.63
2022-12-18T04:43:04.549Z,25.17
2022-12-18T04:45:32.328Z,20.83
2022-12-18T04:47:59.468Z,22.17
2022-12-18T04:50:25.990Z,20.83
2022-12-18T04:52:52.415Z,22.50
2022-12-18T04:55:18.763Z,18.52
2022-12-18T04:57:45.156Z,26.83
2022-12-18T05:00:12.375Z,20.85
2022-12-18T05:02:38.897Z,23.00
2022-12-18T05:05:06.238Z,20.33
2022-12-18T05:07:32.751Z,21.05
2022-12-18T05:09:59.127Z,16.98
2022-12-18T05:12:25.699Z,16.80
2022-12-18T05:14:52.334Z,19.80
2022-12-18T05:17:18.780Z,20.57
2022-12-18T05:19:45.435Z,22.88
2022-12-18T05:22:12.617Z,23.23
2022-12-18T05:24:39.159Z,15.20
2022-12-18T05:27:05.543Z,16.85
2022-12-18T05:29:32.022Z,20.73
2022-12-18T05:31:58.394Z,22.02
2022-12-18T05:34:24.850Z,21.70
2022-12-18T05:36:51.245Z,19.95
2022-12-18T05:39:17.739Z,16.17
2022-12-18T05:41:44.217Z,14.33
2022-12-18T05:44:10.623Z,15.60
2022-12-18T05:46:37.316Z,19.15
2022-12-18T05:49:03.816Z,15.02
2022-12-18T05:51:30.191Z,17.40
2022-12-18T05:53:56.555Z,16.07
2022-12-18T05:56:23.929Z,16.50
2022-12-18T05:58:54.701Z,14.35
2022-12-18T06:01:24.621Z,15.23
2022-12-18T06:03:51.397Z,18.00
2022-12-18T06:06:24.036Z,18.27
2022-12-18T06:08:51.695Z,16.45
2022-12-18T06:11:21.588Z,15.57
2022-12-18T06:13:57.666Z,13.68
2022-12-18T06:16:25.164Z,12.98
2022-12-18T06:18:51.627Z,21.47
2022-12-18T06:21:17.975Z,13.57
2022-12-18T06:23:44.566Z,14.75
2022-12-18T06:26:12.918Z,19.48
2022-12-18T06:28:39.311Z,16.17
2022-12-18T06:31:06.907Z,20.47
2022-12-18T06:33:33.981Z,16.17
2022-12-18T06:36:09.024Z,14.75
2022-12-18T06:38:37.885Z,14.68
2022-12-18T06:41:10.303Z,15.70
2022-12-18T06:43:37.654Z,24.33
2022-12-18T06:46:05.950Z,16.02
2022-12-18T06:48:33.350Z,15.55
2022-12-18T06:50:59.958Z,17.60
2022-12-18T06:53:26.375Z,13.82
2022-12-18T06:55:52.940Z,14.70
2022-12-18T06:58:19.342Z,14.55
2022-12-18T07:00:45.879Z,14.50
2022-12-18T07:03:12.300Z,16.08
2022-12-18T07:05:41.834Z,16.60
2022-12-18T07:08:08.269Z,16.93
2022-12-18T07:10:34.730Z,15.57
2022-12-18T07:13:01.124Z,13.95
2022-12-18T07:15:27.459Z,16.38
2022-12-18T07:17:53.826Z,13.20
2022-12-18T07:20:20.185Z,12.53
2022-12-18T07:22:46.599Z,14.88
2022-12-18T07:25:12.994Z,14.88
2022-12-18T07:27:39.415Z,17.73
2022-12-18T07:30:06.579Z,16.67
2022-12-18T07:32:33.008Z,15.73
2022-12-18T07:34:59.550Z,14.43
2022-12-18T07:37:26.083Z,15.98
2022-12-18T07:39:52.487Z,16.60
2022-12-18T07:42:34.107Z,14.02
2022-12-18T07:45:01.301Z,14.47
2022-12-18T07:47:28.835Z,15.07
2022-12-18T07:49:55.974Z,11.10
2022-12-18T07:52:26.164Z,13.93
2022-12-18T07:54:53.038Z,11.77
2022-12-18T07:57:41.830Z,12.83
2022-12-18T08:00:06.622Z,12.70
2022-12-18T08:02:33.200Z,14.27
2022-12-18T08:04:59.792Z,12.85
2022-12-18T08:07:26.285Z,14.13
2022-12-18T08:09:52.621Z,13.67
2022-12-18T08:12:19.113Z,12.48
2022-12-18T08:14:45.494Z,13.73
2022-12-18T08:17:11.920Z,13.98
2022-12-18T08:19:38.415Z,12.20
2022-12-18T08:22:04.830Z,15.33
2022-12-18T08:24:31.681Z,12.50
2022-12-18T08:27:27.756Z,15.82
2022-12-18T08:29:44.532Z,13.25
2022-12-18T08:32:10.974Z,11.88
2022-12-18T08:34:37.618Z,16.37
2022-12-18T08:37:04.479Z,16.98
2022-12-18T08:39:30.872Z,19.40
2022-12-18T08:42:16.018Z,17.13
2022-12-18T08:44:42.431Z,12.77
2022-12-18T08:47:09.244Z,12.03
2022-12-18T08:49:35.880Z,17.65
2022-12-18T08:52:03.698Z,18.40
2022-12-18T08:54:30.348Z,12.43
2022-12-18T08:56:56.719Z,16.42
2022-12-18T08:59:24.154Z,18.23
2022-12-18T09:01:50.703Z,13.98
2022-12-18T09:04:17.255Z,16.45
2022-12-18T09:06:44.316Z,12.48
2022-12-18T09:09:10.834Z,15.45
2022-12-18T09:11:37.295Z,13.67
2022-12-18T09:14:04.018Z,14.52
2022-12-18T09:16:33.073Z,17.83
2022-12-18T09:19:00.631Z,16.92
2022-12-18T09:21:29.798Z,15.40
2022-12-18T09:23:56.758Z,17.03
2022-12-18T09:26:24.418Z,17.00
2022-12-18T09:28:51.689Z,20.80
2022-12-18T09:31:20.041Z,18.67
2022-12-18T09:33:46.546Z,11.32
2022-12-18T09:36:16.391Z,14.33
2022-12-18T09:38:43.227Z,14.02
2022-12-18T09:41:41.594Z,17.20
2022-12-18T09:44:46.974Z,12.90
2022-12-18T09:47:19.340Z,18.65
2022-12-18T09:49:48.557Z,13.20
2022-12-18T09:52:30.458Z,17.52
2022-12-18T09:55:09.004Z,14.40
2022-12-18T09:57:40.123Z,12.23
2022-12-18T10:00:19.634Z,14.27
2022-12-18T10:02:46.914Z,12.17
2022-12-18T10:05:52.689Z,13.48
2022-12-18T10:08:34.838Z,13.27
2022-12-18T10:11:40.936Z,14.55
2022-12-18T10:14:07.305Z,11.75
2022-12-18T10:16:52.893Z,13.73
2022-12-18T10:19:49.995Z,13.05
2022-12-18T10:22:23.331Z,11.15
2022-12-18T10:25:16.308Z,11.63
2022-12-18T10:27:42.906Z,13.05
2022-12-18T10:30:21.507Z,13.77
2022-12-18T10:32:48.125Z,12.80
2022-12-18T10:35:26.276Z,12.27
2022-12-18T10:38:17.187Z,14.05
2022-12-18T10:40:58.982Z,14.70
2022-12-18T10:43:36.705Z,11.70
2022-12-18T10:46:23.337Z,11.45
2022-12-18T10:48:54.226Z,15.50
2022-12-18T10:51:27.755Z,12.52
2022-12-18T10:54:02.251Z,15.05
2022-12-18T10:56:32.511Z,13.93
2022-12-18T10:59:05.115Z,13.98
2022-12-18T11:01:52.209Z,11.27
2022-12-18T11:04:24.351Z,14.27
2022-12-18T11:07:01.132Z,14.52
2022-12-18T11:09:29.952Z,11.57
2022-12-18T11:12:00.221Z,10.55
2022-12-18T11:14:28.319Z,14.05
2022-12-18T11:17:24.776Z,15.52
2022-12-18T11:19:43.033Z,13.48
2022-12-18T11:22:31.509Z,11.10
2022-12-18T11:25:30.947Z,10.23
2022-12-18T11:27:52.502Z,14.38
2022-12-18T11:30:28.210Z,13.38
2022-12-18T11:33:04.911Z,12.75
2022-12-18T11:35:40.471Z,12.97
2022-12-18T11:38:27.010Z,11.60
2022-12-18T11:41:05.178Z,12.32
2022-12-18T11:43:53.866Z,15.82
2022-12-18T11:46:35.952Z,10.80
2022-12-18T11:49:17.035Z,14.70
2022-12-18T11:51:54.531Z,14.52
2022-12-18T11:54:20.947Z,10.82
2022-12-18T11:56:57.764Z,13.02
2022-12-18T11:59:43.485Z,13.18
2022-12-18T12:02:26.696Z,11.20
2022-12-18T12:05:14.622Z,12.10
2022-12-18T12:08:01.480Z,12.35
2022-12-18T12:10:46.541Z,13.35
2022-12-18T12:13:34.042Z,12.43
2022-12-18T12:16:12.147Z,11.63
2022-12-18T12:19:15.955Z,12.32
2022-12-18T12:21:47.804Z,16.73
2022-12-18T12:24:23.296Z,12.10
2022-12-18T12:27:23.637Z,13.00
2022-12-18T12:29:57.147Z,12.47
2022-12-18T12:32:51.996Z,13.73
2022-12-18T12:35:55.534Z,14.98
2022-12-18T12:38:51.721Z,15.00
2022-12-18T12:41:42.781Z,14.00
2022-12-18T12:44:17.698Z,11.73
2022-12-18T12:46:44.900Z,13.63
2022-12-18T12:49:18.375Z,15.00
2022-12-18T12:51:48.125Z,13.65
2022-12-18T12:54:24.493Z,15.02
2022-12-18T12:57:14.628Z,14.83
2022-12-18T12:59:53.638Z,16.95
2022-12-18T13:02:48.662Z,11.07
2022-12-18T13:05:43.164Z,14.73
2022-12-18T13:08:33.224Z,11.40
2022-12-18T13:11:19.826Z,15.57
2022-12-18T13:13:57.238Z,12.70
2022-12-18T13:16:26.286Z,11.77
2022-12-18T13:18:55.354Z,16.00
2022-12-18T13:21:28.028Z,14.43
2022-12-18T13:23:55.030Z,15.47
2022-12-18T13:26:28.855Z,13.90
2022-12-18T13:28:57.747Z,13.07
2022-12-18T13:31:43.455Z,13.27
2022-12-18T13:34:26.933Z,14.05
2022-12-18T13:36:58.215Z,14.27
2022-12-18T13:39:35.105Z,14.77
2022-12-18T13:42:08.492Z,15.68
2022-12-18T13:44:44.246Z,11.02
2022-12-18T13:47:34.279Z,13.00
2022-12-18T13:50:03.122Z,17.07
2022-12-18T13:52:37.991Z,14.35
2022-12-18T13:55:08.650Z,11.05
2022-12-18T13:57:39.339Z,14.35
2022-12-18T14:00:29.772Z,12.73
2022-12-18T14:03:00.412Z,12.23
2022-12-18T14:05:32.930Z,16.38
2022-12-18T14:08:06.601Z,13.85
2022-12-18T14:10:44.410Z,13.20
2022-12-18T14:13:30.098Z,13.48
2022-12-18T14:15:59.197Z,13.40
2022-12-18T14:18:29.977Z,14.18
2022-12-18T14:21:00.313Z,15.85
2022-12-18T14:23:39.393Z,14.02
2022-12-18T14:26:28.949Z,11.88
2022-12-18T14:29:27.778Z,14.17
2022-12-18T14:32:16.492Z,15.95
2022-12-18T14:34:49.167Z,16.20
2022-12-18T14:37:20.717Z,12.85
2022-12-18T14:40:08.694Z,17.33
2022-12-18T14:42:35.407Z,12.60
2022-12-18T14:45:37.639Z,13.90
2022-12-18T14:48:36.837Z,12.55
2022-12-18T14:51:16.017Z,15.27
2022-12-18T14:53:52.057Z,14.85
2022-12-18T14:56:30.240Z,16.07
2022-12-18T14:59:02.212Z,13.48
2022-12-18T15:01:51.523Z,14.65
2022-12-18T15:04:40.252Z,16.10
2022-12-18T15:07:14.520Z,16.02
2022-12-18T15:09:45.870Z,15.83
2022-12-18T15:12:35.685Z,17.35
2022-12-18T15:15:02.951Z,12.85
2022-12-18T15:17:29.642Z,16.77
2022-12-18T15:20:10.278Z,16.92
2022-12-18T15:22:37.777Z,16.83
2022-12-18T15:25:23.215Z,14.63
2022-12-18T15:27:49.611Z,14.50
2022-12-18T15:30:16.224Z,15.40
2022-12-18T15:32:42.619Z,17.63
2022-12-18T15:35:09.046Z,20.33
2022-12-18T15:37:35.729Z,16.13
2022-12-18T15:40:03.137Z,17.85
2022-12-18T15:42:49.097Z,17.55
2022-12-18T15:45:15.982Z,17.23
2022-12-18T15:47:45.353Z,16.17
2022-12-18T15:50:11.763Z,17.83
2022-12-18T15:52:43.941Z,17.67
2022-12-18T15:55:39.692Z,14.90
2022-12-18T15:58:08.830Z,16.13
2022-12-18T16:00:37.636Z,18.87
2022-12-18T16:03:05.771Z,16.52
2022-12-18T16:05:33.103Z,18.80
2022-12-18T16:07:59.619Z,14.73
2022-12-18T16:10:27.313Z,22.33
2022-12-18T16:12:53.787Z,16.07
2022-12-18T16:15:24.465Z,18.05
2022-12-18T16:17:52.719Z,16.58
2022-12-18T16:20:22.334Z,17.02
2022-12-18T16:22:50.224Z,19.13
2022-12-18T16:25:28.587Z,15.37
2022-12-18T16:27:56.918Z,19.50
2022-12-18T16:30:28.558Z,18.33
2022-12-18T16:32:59.436Z,18.98
2022-12-18T16:35:27.159Z,18.63
2022-12-18T16:37:53.823Z,16.57
2022-12-18T16:40:21.132Z,19.67
2022-12-18T16:45:17.116Z,16.88
2022-12-18T16:47:43.753Z,19.15
2022-12-18T16:50:10.931Z,19.47
2022-12-18T16:52:37.396Z,18.80
2022-12-18T16:55:04.303Z,17.92
2022-12-18T16:57:30.751Z,17.73
2022-12-18T17:00:02.992Z,20.25
2022-12-18T17:02:31.562Z,15.03
2022-12-18T17:04:59.160Z,20.48
2022-12-18T17:07:26.866Z,16.80
2022-12-18T17:09:54.066Z,17.25
2022-12-18T17:12:20.829Z,14.10
2022-12-18T17:14:47.156Z,18.83
2022-12-18T17:17:22.240Z,16.70
2022-12-18T17:19:49.809Z,26.08
2022-12-18T17:22:16.320Z,14.65
2022-12-18T17:24:42.846Z,18.23
2022-12-18T17:27:09.323Z,19.63
2022-12-18T17:29:35.957Z,15.88
2022-12-18T17:32:02.462Z,19.05
2022-12-18T17:34:29.043Z,19.38
2022-12-18T17:36:56.720Z,21.83
2022-12-18T17:39:23.354Z,15.03
2022-12-18T17:41:50.142Z,20.23
2022-12-18T17:44:17.950Z,16.40
2022-12-18T17:46:46.190Z,19.70
2022-12-18T17:49:14.164Z,22.35
2022-12-18T17:51:42.728Z,24.63
2022-12-18T17:54:09.772Z,20.45
2022-12-18T17:56:36.469Z,20.40
2022-12-18T17:59:03.005Z,16.20
2022-12-18T18:01:29.594Z,18.15
2022-12-18T18:03:56.616Z,19.60
2022-12-18T18:06:24.141Z,23.70
2022-12-18T18:08:51.170Z,21.63
2022-12-18T18:11:38.486Z,25.15
2022-12-18T18:14:07.990Z,16.30
2022-12-18T18:16:47.705Z,20.73
2022-12-18T18:19:19.557Z,18.48
2022-12-18T18:21:48.475Z,16.73
2022-12-18T18:24:17.996Z,21.13
2022-12-18T18:26:46.743Z,19.20
2022-12-18T18:29:16.482Z,17.97
2022-12-18T18:31:43.785Z,20.95
2022-12-18T18:34:16.233Z,19.38
2022-12-18T18:36:42.930Z,18.98
2022-12-18T18:39:09.661Z,23.27
2022-12-18T18:41:36.951Z,21.17
2022-12-18T18:44:03.677Z,20.25
2022-12-18T18:46:30.232Z,20.48
2022-12-18T18:48:56.604Z,19.00
2022-12-18T18:51:23.910Z,19.85
2022-12-18T18:53:52.626Z,22.10
2022-12-18T18:59:08.522Z,20.55
2022-12-18T19:01:35.254Z,27.00
2022-12-18T19:04:04.595Z,20.58
2022-12-18T19:06:31.235Z,19.37
2022-12-18T19:09:01.203Z,18.58
2022-12-18T19:11:46.456Z,21.30
2022-12-18T19:14:14.666Z,17.50
2022-12-18T19:16:42.724Z,20.73
2022-12-18T19:19:09.571Z,20.23
2022-12-18T19:21:38.123Z,18.20
2022-12-18T19:24:05.094Z,19.80
2022-12-18T19:26:31.736Z,20.70
2022-12-18T19:29:06.872Z,20.15
2022-12-18T19:31:36.340Z,21.83
2022-12-18T19:34:07.543Z,23.50
2022-12-18T19:36:36.286Z,20.80
2022-12-18T19:39:15.601Z,19.95
2022-12-18T19:41:42.279Z,23.27
2022-12-18T19:44:12.158Z,26.10
2022-12-18T19:46:41.927Z,19.40
2022-12-18T19:49:09.994Z,18.20
2022-12-18T19:51:36.622Z,18.70
2022-12-18T19:54:03.323Z,21.38
2022-12-18T19:56:32.651Z,21.57
2022-12-18T19:59:00.122Z,18.63
2022-12-18T20:01:27.856Z,18.67
2022-12-18T20:03:55.289Z,23.75
2022-12-18T20:06:32.200Z,20.63
2022-12-18T20:09:01.886Z,22.30
2022-12-18T20:11:29.817Z,24.50
2022-12-18T20:13:57.649Z,22.05
2022-12-18T20:16:24.162Z,19.92
2022-12-18T20:18:50.752Z,27.23
2022-12-18T20:21:18.721Z,26.20
2022-12-18T20:23:45.896Z,21.58
2022-12-18T20:26:12.392Z,21.63
2022-12-18T20:28:40.386Z,22.90
2022-12-18T20:31:08.313Z,23.52
2022-12-18T20:33:37.270Z,25.07
2022-12-18T20:36:08.627Z,22.13
2022-12-18T20:38:35.455Z,22.70
2022-12-18T20:41:07.718Z,24.30
2022-12-18T20:43:34.256Z,25.27
2022-12-18T20:46:03.076Z,24.03
2022-12-18T20:48:30.584Z,22.67
2022-12-18T20:51:03.813Z,21.10
2022-12-18T20:53:30.960Z,27.40
2022-12-18T20:55:57.446Z,24.15
2022-12-18T20:58:24.363Z,22.50
2022-12-18T21:01:01.992Z,23.55
2022-12-18T21:03:28.617Z,22.83
2022-12-18T21:05:55.183Z,24.33
2022-12-18T21:08:21.654Z,24.67
2022-12-18T21:10:48.175Z,22.97
2022-12-18T21:13:15.094Z,23.70
2022-12-18T21:15:43.702Z,22.55
2022-12-18T21:18:10.067Z,28.02
2022-12-18T21:20:36.512Z,24.05
2022-12-18T21:23:16.035Z,26.93
2022-12-18T21:25:44.067Z,22.88
2022-12-18T21:28:12.219Z,27.52
2022-12-18T21:30:38.848Z,29.58
2022-12-18T21:33:05.292Z,23.83
2022-12-18T21:35:32.219Z,23.13
2022-12-18T21:37:58.792Z,27.15
2022-12-18T21:40:25.168Z,29.25
2022-12-18T21:43:10.420Z,20.35
2022-12-18T21:45:40.367Z,21.73
2022-12-18T21:48:06.967Z,23.87
2022-12-18T21:50:33.536Z,29.25
2022-12-18T21:52:59.977Z,26.42
2022-12-18T21:55:26.410Z,30.83
2022-12-18T21:57:53.968Z,25.10
2022-12-18T22:00:20.592Z,26.87
2022-12-18T22:02:48.755Z,26.63
2022-12-18T22:05:34.747Z,24.67
2022-12-18T22:08:01.558Z,26.58
2022-12-18T22:10:27.890Z,22.52
2022-12-18T22:12:55.017Z,22.17
2022-12-18T22:15:22.152Z,25.05
2022-12-18T22:17:50.205Z,28.10
2022-12-18T22:20:17.885Z,29.27
2022-12-18T22:22:46.605Z,27.42
2022-12-18T22:25:13.030Z,26.90
2022-12-18T22:27:39.512Z,25.02
2022-12-18T22:30:06.537Z,28.15
2022-12-18T22:32:34.941Z,28.05
2022-12-18T22:35:09.447Z,24.95
2022-12-18T22:37:39.449Z,28.87
2022-12-18T22:40:12.182Z,30.05
2022-12-18T22:42:40.485Z,28.70
2022-12-18T22:45:07.308Z,20.10
2022-12-18T22:47:33.731Z,26.13
2022-12-18T22:50:00.174Z,24.53
2022-12-18T22:52:26.674Z,29.58
2022-12-18T22:54:54.124Z,29.73
2022-12-18T22:57:22.100Z,25.67
2022-12-18T22:59:49.880Z,30.42
2022-12-18T23:02:17.720Z,29.27
2022-12-18T23:04:44.933Z,27.48
2022-12-18T23:07:11.743Z,26.88
2022-12-18T23:09:39.823Z,29.33
2022-12-18T23:12:06.789Z,25.98
2022-12-18T23:14:33.273Z,25.00
2022-12-18T23:16:59.636Z,27.95
2022-12-18T23:19:26.297Z,24.13
2022-12-18T23:21:52.758Z,23.73
2022-12-18T23:24:21.236Z,29.45
2022-12-18T23:26:47.567Z,29.77
2022-12-18T23:29:13.918Z,27.98
2022-12-18T23:31:40.384Z,31.35
2022-12-18T23:34:07.717Z,26.77
2022-12-18T23:36:46.005Z,25.13
2022-12-18T23:39:20.886Z,29.43
2022-12-18T23:41:56.063Z,24.55
2022-12-18T23:44:22.599Z,32.53
2022-12-18T23:46:49.084Z,26.38
2022-12-18T23:49:15.523Z,28.77
2022-12-18T23:51:41.881Z,26.30
2022-12-18T23:54:10.212Z,28.65
2022-12-18T23:56:36.583Z,29.92
2022-12-18T23:59:03.300Z,28.27
